sensor_id;sensor_type;location;lat;lon;timestamp;temperature;humidity
27540;DHT22;15906;52.046;4.724;2022-11-10T00:01:51;10.60;99.90
27540;DHT22;15906;52.046;4.724;2022-11-10T00:04:17;10.60;99.90
27540;DHT22;15906;52.046;4.724;2022-11-10T00:06:44;10.60;99.90
27540;DHT22;15906;52.046;4.724;2022-11-10T00:09:10;10.70;99.90
27540;DHT22;15906;52.046;4.724;2022-11-10T00:11:35;10.70;99.90
27540;DHT22;15906;52.046;4.724;2022-11-10T00:14:01;10.60;99.90
27540;DHT22;15906;52.046;4.724;2022-11-10T00:16:45;10.60;99.90
27540;DHT22;15906;52.046;4.724;2022-11-10T00:19:27;10.60;99.90
27540;DHT22;15906;52.046;4.724;2022-11-10T00:21:53;10.50;99.90
27540;DHT22;15906;52.046;4.724;2022-11-10T00:24:18;10.50;99.90
27540;DHT22;15906;52.046;4.724;2022-11-10T00:26:44;10.50;99.90
27540;DHT22;15906;52.046;4.724;2022-11-10T00:29:09;10.50;99.90
27540;DHT22;15906;52.046;4.724;2022-11-10T00:31:39;10.40;99.90
27540;DHT22;15906;52.046;4.724;2022-11-10T00:34:05;10.40;99.90
27540;DHT22;15906;52.046;4.724;2022-11-10T00:36:31;10.40;99.90
27540;DHT22;15906;52.046;4.724;2022-11-10T00:38:56;10.50;99.90
27540;DHT22;15906;52.046;4.724;2022-11-10T00:41:22;10.40;99.90
27540;DHT22;15906;52.046;4.724;2022-11-10T00:43:48;10.40;99.90
27540;DHT22;15906;52.046;4.724;2022-11-10T00:46:14;10.30;99.90
27540;DHT22;15906;52.046;4.724;2022-11-10T00:48:39;10.40;99.90
27540;DHT22;15906;52.046;4.724;2022-11-10T00:51:05;10.40;99.90
27540;DHT22;15906;52.046;4.724;2022-11-10T00:53:30;10.40;99.90
27540;DHT22;15906;52.046;4.724;2022-11-10T00:55:56;10.40;99.90
27540;DHT22;15906;52.046;4.724;2022-11-10T00:58:22;10.40;99.90
27540;DHT22;15906;52.046;4.724;2022-11-10T01:00:47;10.40;99.90
27540;DHT22;15906;52.046;4.724;2022-11-10T01:03:14;10.50;99.90
27540;DHT22;15906;52.046;4.724;2022-11-10T01:05:41;10.50;99.90
27540;DHT22;15906;52.046;4.724;2022-11-10T01:08:07;10.50;99.90
27540;DHT22;15906;52.046;4.724;2022-11-10T01:10:33;10.50;99.90
27540;DHT22;15906;52.046;4.724;2022-11-10T01:12:59;10.50;99.90
27540;DHT22;15906;52.046;4.724;2022-11-10T01:15:24;10.50;99.90
27540;DHT22;15906;52.046;4.724;2022-11-10T01:17:51;10.50;99.90
27540;DHT22;15906;52.046;4.724;2022-11-10T01:20:17;10.60;99.90
27540;DHT22;15906;52.046;4.724;2022-11-10T01:22:43;10.60;99.90
27540;DHT22;15906;52.046;4.724;2022-11-10T01:25:09;10.60;99.90
27540;DHT22;15906;52.046;4.724;2022-11-10T01:27:34;10.60;99.90
27540;DHT22;15906;52.046;4.724;2022-11-10T01:30:00;10.50;99.90
27540;DHT22;15906;52.046;4.724;2022-11-10T01:32:25;10.40;99.90
27540;DHT22;15906;52.046;4.724;2022-11-10T01:34:51;10.50;99.90
27540;DHT22;15906;52.046;4.724;2022-11-10T01:37:17;10.50;99.90
27540;DHT22;15906;52.046;4.724;2022-11-10T01:39:42;10.50;99.90
27540;DHT22;15906;52.046;4.724;2022-11-10T01:42:08;10.50;99.90
27540;DHT22;15906;52.046;4.724;2022-11-10T01:44:34;10.50;99.90
27540;DHT22;15906;52.046;4.724;2022-11-10T01:46:59;10.50;99.90
27540;DHT22;15906;52.046;4.724;2022-11-10T01:49:26;10.50;99.90
27540;DHT22;15906;52.046;4.724;2022-11-10T01:51:57;10.50;99.90
27540;DHT22;15906;52.046;4.724;2022-11-10T01:54:28;10.50;99.90
27540;DHT22;15906;52.046;4.724;2022-11-10T01:56:58;10.50;99.90
27540;DHT22;15906;52.046;4.724;2022-11-10T01:59:26;10.50;99.90
27540;DHT22;15906;52.046;4.724;2022-11-10T02:01:55;10.50;99.90
27540;DHT22;15906;52.046;4.724;2022-11-10T02:04:23;10.50;99.90
27540;DHT22;15906;52.046;4.724;2022-11-10T02:06:50;10.50;99.90
27540;DHT22;15906;52.046;4.724;2022-11-10T02:09:16;10.50;99.90
27540;DHT22;15906;52.046;4.724;2022-11-10T02:11:43;10.50;99.90
27540;DHT22;15906;52.046;4.724;2022-11-10T02:14:10;10.50;99.90
27540;DHT22;15906;52.046;4.724;2022-11-10T02:16:38;10.40;99.90
27540;DHT22;15906;52.046;4.724;2022-11-10T02:19:19;10.40;99.90
27540;DHT22;15906;52.046;4.724;2022-11-10T02:21:45;10.40;99.90
27540;DHT22;15906;52.046;4.724;2022-11-10T02:24:10;10.40;99.90
27540;DHT22;15906;52.046;4.724;2022-11-10T02:26:42;10.50;99.90
27540;DHT22;15906;52.046;4.724;2022-11-10T02:29:08;10.50;99.90
27540;DHT22;15906;52.046;4.724;2022-11-10T02:31:34;10.40;99.90
27540;DHT22;15906;52.046;4.724;2022-11-10T02:33:59;10.30;99.90
27540;DHT22;15906;52.046;4.724;2022-11-10T02:36:25;10.30;99.90
27540;DHT22;15906;52.046;4.724;2022-11-10T02:38:50;10.30;99.90
27540;DHT22;15906;52.046;4.724;2022-11-10T02:41:16;10.30;99.90
27540;DHT22;15906;52.046;4.724;2022-11-10T02:43:41;10.30;99.90
27540;DHT22;15906;52.046;4.724;2022-11-10T02:46:07;10.30;99.90
27540;DHT22;15906;52.046;4.724;2022-11-10T02:48:32;10.40;99.90
27540;DHT22;15906;52.046;4.724;2022-11-10T02:50:58;10.40;99.90
27540;DHT22;15906;52.046;4.724;2022-11-10T02:53:23;10.40;99.90
27540;DHT22;15906;52.046;4.724;2022-11-10T02:55:49;10.40;99.90
27540;DHT22;15906;52.046;4.724;2022-11-10T02:58:14;10.20;99.90
27540;DHT22;15906;52.046;4.724;2022-11-10T03:00:40;10.30;99.90
27540;DHT22;15906;52.046;4.724;2022-11-10T03:03:05;10.20;99.90
27540;DHT22;15906;52.046;4.724;2022-11-10T03:05:31;10.30;99.90
27540;DHT22;15906;52.046;4.724;2022-11-10T03:07:59;10.20;99.90
27540;DHT22;15906;52.046;4.724;2022-11-10T03:10:26;10.30;99.90
27540;DHT22;15906;52.046;4.724;2022-11-10T03:12:54;10.30;99.90
27540;DHT22;15906;52.046;4.724;2022-11-10T03:15:20;10.20;99.90
27540;DHT22;15906;52.046;4.724;2022-11-10T03:17:46;10.20;99.90
27540;DHT22;15906;52.046;4.724;2022-11-10T03:20:11;10.20;99.90
27540;DHT22;15906;52.046;4.724;2022-11-10T03:22:37;10.20;99.90
27540;DHT22;15906;52.046;4.724;2022-11-10T03:25:03;10.20;99.90
27540;DHT22;15906;52.046;4.724;2022-11-10T03:27:29;10.20;99.90
27540;DHT22;15906;52.046;4.724;2022-11-10T03:29:54;10.20;99.90
27540;DHT22;15906;52.046;4.724;2022-11-10T03:32:20;10.20;99.90
27540;DHT22;15906;52.046;4.724;2022-11-10T03:34:45;10.20;99.90
27540;DHT22;15906;52.046;4.724;2022-11-10T03:37:11;10.20;99.90
27540;DHT22;15906;52.046;4.724;2022-11-10T03:39:36;10.20;99.90
27540;DHT22;15906;52.046;4.724;2022-11-10T03:42:02;10.20;99.90
27540;DHT22;15906;52.046;4.724;2022-11-10T03:44:27;10.20;99.90
27540;DHT22;15906;52.046;4.724;2022-11-10T03:46:53;10.20;99.90
27540;DHT22;15906;52.046;4.724;2022-11-10T03:49:18;10.20;99.90
27540;DHT22;15906;52.046;4.724;2022-11-10T03:51:44;10.20;99.90
27540;DHT22;15906;52.046;4.724;2022-11-10T03:54:09;10.20;99.90
27540;DHT22;15906;52.046;4.724;2022-11-10T03:56:35;10.20;99.90
27540;DHT22;15906;52.046;4.724;2022-11-10T03:59:00;10.10;99.90
27540;DHT22;15906;52.046;4.724;2022-11-10T04:01:26;10.10;99.90
27540;DHT22;15906;52.046;4.724;2022-11-10T04:03:51;10.00;99.90
27540;DHT22;15906;52.046;4.724;2022-11-10T04:06:17;10.10;99.90
27540;DHT22;15906;52.046;4.724;2022-11-10T04:09:02;10.10;99.90
27540;DHT22;15906;52.046;4.724;2022-11-10T04:11:29;10.10;99.90
27540;DHT22;15906;52.046;4.724;2022-11-10T04:14:13;10.10;99.90
27540;DHT22;15906;52.046;4.724;2022-11-10T04:16:58;10.10;99.90
27540;DHT22;15906;52.046;4.724;2022-11-10T04:19:24;10.10;99.90
27540;DHT22;15906;52.046;4.724;2022-11-10T04:21:50;10.00;99.90
27540;DHT22;15906;52.046;4.724;2022-11-10T04:24:15;10.10;99.90
27540;DHT22;15906;52.046;4.724;2022-11-10T04:26:42;10.10;99.90
27540;DHT22;15906;52.046;4.724;2022-11-10T04:29:09;10.10;99.90
27540;DHT22;15906;52.046;4.724;2022-11-10T04:31:37;10.00;99.90
27540;DHT22;15906;52.046;4.724;2022-11-10T04:34:04;9.90;99.90
27540;DHT22;15906;52.046;4.724;2022-11-10T04:36:32;10.00;99.90
27540;DHT22;15906;52.046;4.724;2022-11-10T04:38:58;10.10;99.90
27540;DHT22;15906;52.046;4.724;2022-11-10T04:41:25;10.00;99.90
27540;DHT22;15906;52.046;4.724;2022-11-10T04:43:51;10.00;99.90
27540;DHT22;15906;52.046;4.724;2022-11-10T04:46:29;10.00;99.90
27540;DHT22;15906;52.046;4.724;2022-11-10T04:48:55;10.00;99.90
27540;DHT22;15906;52.046;4.724;2022-11-10T04:51:23;10.00;99.90
27540;DHT22;15906;52.046;4.724;2022-11-10T04:53:49;10.10;99.90
27540;DHT22;15906;52.046;4.724;2022-11-10T04:56:16;10.10;99.90
27540;DHT22;15906;52.046;4.724;2022-11-10T04:58:42;10.10;99.90
27540;DHT22;15906;52.046;4.724;2022-11-10T05:01:16;10.00;99.90
27540;DHT22;15906;52.046;4.724;2022-11-10T05:03:43;10.10;99.90
27540;DHT22;15906;52.046;4.724;2022-11-10T05:06:09;10.10;99.90
27540;DHT22;15906;52.046;4.724;2022-11-10T05:08:36;10.10;99.90
27540;DHT22;15906;52.046;4.724;2022-11-10T05:11:02;10.10;99.90
27540;DHT22;15906;52.046;4.724;2022-11-10T05:13:27;10.10;99.90
27540;DHT22;15906;52.046;4.724;2022-11-10T05:15:53;10.10;99.90
27540;DHT22;15906;52.046;4.724;2022-11-10T05:18:19;10.10;99.90
27540;DHT22;15906;52.046;4.724;2022-11-10T05:20:44;10.10;99.90
27540;DHT22;15906;52.046;4.724;2022-11-10T05:23:10;10.10;99.90
27540;DHT22;15906;52.046;4.724;2022-11-10T05:25:54;10.10;99.90
27540;DHT22;15906;52.046;4.724;2022-11-10T05:28:20;10.10;99.90
27540;DHT22;15906;52.046;4.724;2022-11-10T05:30:46;10.10;99.90
27540;DHT22;15906;52.046;4.724;2022-11-10T05:33:11;10.20;99.90
27540;DHT22;15906;52.046;4.724;2022-11-10T05:35:38;10.20;99.90
27540;DHT22;15906;52.046;4.724;2022-11-10T05:38:04;10.10;99.90
27540;DHT22;15906;52.046;4.724;2022-11-10T05:40:30;10.10;99.90
27540;DHT22;15906;52.046;4.724;2022-11-10T05:42:55;10.10;99.90
27540;DHT22;15906;52.046;4.724;2022-11-10T05:45:23;10.20;99.90
27540;DHT22;15906;52.046;4.724;2022-11-10T05:47:49;10.10;99.90
27540;DHT22;15906;52.046;4.724;2022-11-10T05:50:16;10.10;99.90
27540;DHT22;15906;52.046;4.724;2022-11-10T05:52:44;10.20;99.90
27540;DHT22;15906;52.046;4.724;2022-11-10T05:55:11;10.10;99.90
27540;DHT22;15906;52.046;4.724;2022-11-10T05:57:37;10.20;99.90
27540;DHT22;15906;52.046;4.724;2022-11-10T06:00:06;10.20;99.90
27540;DHT22;15906;52.046;4.724;2022-11-10T06:02:32;10.10;99.90
27540;DHT22;15906;52.046;4.724;2022-11-10T06:04:57;10.10;99.90
27540;DHT22;15906;52.046;4.724;2022-11-10T06:07:23;10.10;99.90
27540;DHT22;15906;52.046;4.724;2022-11-10T06:09:48;10.00;99.90
27540;DHT22;15906;52.046;4.724;2022-11-10T06:12:14;10.10;99.90
27540;DHT22;15906;52.046;4.724;2022-11-10T06:14:40;10.10;99.90
27540;DHT22;15906;52.046;4.724;2022-11-10T06:17:05;10.10;99.90
27540;DHT22;15906;52.046;4.724;2022-11-10T06:19:31;10.10;99.90
27540;DHT22;15906;52.046;4.724;2022-11-10T06:21:56;10.10;99.90
27540;DHT22;15906;52.046;4.724;2022-11-10T06:24:22;10.10;99.90
27540;DHT22;15906;52.046;4.724;2022-11-10T06:26:48;10.20;99.90
27540;DHT22;15906;52.046;4.724;2022-11-10T06:29:13;10.20;99.90
27540;DHT22;15906;52.046;4.724;2022-11-10T06:31:39;10.20;99.90
27540;DHT22;15906;52.046;4.724;2022-11-10T06:34:04;10.10;99.90
27540;DHT22;15906;52.046;4.724;2022-11-10T06:36:30;10.10;99.90
27540;DHT22;15906;52.046;4.724;2022-11-10T06:38:55;10.10;99.90
27540;DHT22;15906;52.046;4.724;2022-11-10T06:41:21;10.10;99.90
27540;DHT22;15906;52.046;4.724;2022-11-10T06:43:46;10.10;99.90
27540;DHT22;15906;52.046;4.724;2022-11-10T06:46:12;10.10;99.90
27540;DHT22;15906;52.046;4.724;2022-11-10T06:48:37;10.10;99.90
27540;DHT22;15906;52.046;4.724;2022-11-10T06:51:04;10.10;99.90
27540;DHT22;15906;52.046;4.724;2022-11-10T06:53:29;10.20;99.90
27540;DHT22;15906;52.046;4.724;2022-11-10T06:55:55;10.10;99.90
27540;DHT22;15906;52.046;4.724;2022-11-10T06:58:20;10.10;99.90
27540;DHT22;15906;52.046;4.724;2022-11-10T07:00:46;10.10;99.90
27540;DHT22;15906;52.046;4.724;2022-11-10T07:03:13;10.10;99.90
27540;DHT22;15906;52.046;4.724;2022-11-10T07:05:39;10.10;99.90
27540;DHT22;15906;52.046;4.724;2022-11-10T07:08:08;10.20;99.90
27540;DHT22;15906;52.046;4.724;2022-11-10T07:10:34;10.20;99.90
27540;DHT22;15906;52.046;4.724;2022-11-10T07:13:01;10.10;99.90
27540;DHT22;15906;52.046;4.724;2022-11-10T07:15:27;10.10;99.90
27540;DHT22;15906;52.046;4.724;2022-11-10T07:17:53;10.10;99.90
27540;DHT22;15906;52.046;4.724;2022-11-10T07:20:19;10.10;99.90
27540;DHT22;15906;52.046;4.724;2022-11-10T07:22:44;10.10;99.90
27540;DHT22;15906;52.046;4.724;2022-11-10T07:25:10;10.20;99.90
27540;DHT22;15906;52.046;4.724;2022-11-10T07:27:36;10.20;99.90
27540;DHT22;15906;52.046;4.724;2022-11-10T07:30:02;10.20;99.90
27540;DHT22;15906;52.046;4.724;2022-11-10T07:32:28;10.20;99.90
27540;DHT22;15906;52.046;4.724;2022-11-10T07:34:53;10.30;99.90
27540;DHT22;15906;52.046;4.724;2022-11-10T07:37:19;10.30;99.90
27540;DHT22;15906;52.046;4.724;2022-11-10T07:39:44;10.20;99.90
27540;DHT22;15906;52.046;4.724;2022-11-10T07:42:10;10.30;99.90
27540;DHT22;15906;52.046;4.724;2022-11-10T07:44:36;10.30;99.90
27540;DHT22;15906;52.046;4.724;2022-11-10T07:47:01;10.30;99.90
27540;DHT22;15906;52.046;4.724;2022-11-10T07:49:27;10.30;99.90
27540;DHT22;15906;52.046;4.724;2022-11-10T07:51:52;10.30;99.90
27540;DHT22;15906;52.046;4.724;2022-11-10T07:54:18;10.40;99.90
27540;DHT22;15906;52.046;4.724;2022-11-10T07:56:43;10.30;99.90
27540;DHT22;15906;52.046;4.724;2022-11-10T07:59:09;10.40;99.90
27540;DHT22;15906;52.046;4.724;2022-11-10T08:01:35;10.60;99.90
27540;DHT22;15906;52.046;4.724;2022-11-10T08:04:00;10.60;99.90
27540;DHT22;15906;52.046;4.724;2022-11-10T08:06:26;10.60;99.90
27540;DHT22;15906;52.046;4.724;2022-11-10T08:08:51;10.70;99.90
27540;DHT22;15906;52.046;4.724;2022-11-10T08:11:17;10.90;99.90
27540;DHT22;15906;52.046;4.724;2022-11-10T08:13:42;10.90;99.90
27540;DHT22;15906;52.046;4.724;2022-11-10T08:16:08;11.00;99.90
27540;DHT22;15906;52.046;4.724;2022-11-10T08:18:33;11.00;99.90
27540;DHT22;15906;52.046;4.724;2022-11-10T08:21:00;11.00;99.90
27540;DHT22;15906;52.046;4.724;2022-11-10T08:23:26;11.10;99.90
27540;DHT22;15906;52.046;4.724;2022-11-10T08:25:56;11.20;99.90
27540;DHT22;15906;52.046;4.724;2022-11-10T08:28:22;11.30;99.90
27540;DHT22;15906;52.046;4.724;2022-11-10T08:30:47;11.30;99.90
27540;DHT22;15906;52.046;4.724;2022-11-10T08:33:16;11.40;99.90
27540;DHT22;15906;52.046;4.724;2022-11-10T08:35:44;11.40;99.90
27540;DHT22;15906;52.046;4.724;2022-11-10T08:38:16;11.40;99.90
27540;DHT22;15906;52.046;4.724;2022-11-10T08:40:43;11.40;99.90
27540;DHT22;15906;52.046;4.724;2022-11-10T08:43:09;11.40;99.90
27540;DHT22;15906;52.046;4.724;2022-11-10T08:45:37;11.50;99.90
27540;DHT22;15906;52.046;4.724;2022-11-10T08:48:08;11.40;99.90
27540;DHT22;15906;52.046;4.724;2022-11-10T08:50:34;11.50;99.90
27540;DHT22;15906;52.046;4.724;2022-11-10T08:53:01;11.50;99.90
27540;DHT22;15906;52.046;4.724;2022-11-10T08:55:27;11.50;99.90
27540;DHT22;15906;52.046;4.724;2022-11-10T08:58:00;11.60;99.90
27540;DHT22;15906;52.046;4.724;2022-11-10T09:00:27;11.70;99.90
27540;DHT22;15906;52.046;4.724;2022-11-10T09:02:54;11.70;99.90
27540;DHT22;15906;52.046;4.724;2022-11-10T09:05:20;11.80;99.90
27540;DHT22;15906;52.046;4.724;2022-11-10T09:07:47;12.00;99.90
27540;DHT22;15906;52.046;4.724;2022-11-10T09:10:13;12.20;99.90
27540;DHT22;15906;52.046;4.724;2022-11-10T09:12:41;12.40;99.90
27540;DHT22;15906;52.046;4.724;2022-11-10T09:15:08;12.50;99.90
27540;DHT22;15906;52.046;4.724;2022-11-10T09:17:34;12.80;99.90
27540;DHT22;15906;52.046;4.724;2022-11-10T09:19:59;12.80;99.90
27540;DHT22;15906;52.046;4.724;2022-11-10T09:22:25;12.90;99.90
27540;DHT22;15906;52.046;4.724;2022-11-10T09:24:50;13.00;99.90
27540;DHT22;15906;52.046;4.724;2022-11-10T09:27:16;13.10;99.90
27540;DHT22;15906;52.046;4.724;2022-11-10T09:29:42;13.10;99.90
27540;DHT22;15906;52.046;4.724;2022-11-10T09:32:07;13.20;99.90
27540;DHT22;15906;52.046;4.724;2022-11-10T09:34:33;13.30;99.90
27540;DHT22;15906;52.046;4.724;2022-11-10T09:36:58;13.50;99.90
27540;DHT22;15906;52.046;4.724;2022-11-10T09:39:24;13.50;99.90
27540;DHT22;15906;52.046;4.724;2022-11-10T09:41:49;13.50;99.90
27540;DHT22;15906;52.046;4.724;2022-11-10T09:44:21;13.80;99.90
27540;DHT22;15906;52.046;4.724;2022-11-10T09:47:01;13.90;99.90
27540;DHT22;15906;52.046;4.724;2022-11-10T09:49:35;14.00;99.90
27540;DHT22;15906;52.046;4.724;2022-11-10T09:52:03;14.00;99.90
27540;DHT22;15906;52.046;4.724;2022-11-10T09:54:45;14.00;99.90
27540;DHT22;15906;52.046;4.724;2022-11-10T09:57:16;13.90;99.90
27540;DHT22;15906;52.046;4.724;2022-11-10T09:59:43;13.80;99.90
27540;DHT22;15906;52.046;4.724;2022-11-10T10:02:28;13.90;99.90
27540;DHT22;15906;52.046;4.724;2022-11-10T10:08:08;14.10;99.90
27540;DHT22;15906;52.046;4.724;2022-11-10T10:10:47;14.10;99.90
27540;DHT22;15906;52.046;4.724;2022-11-10T10:16:13;14.10;99.90
27540;DHT22;15906;52.046;4.724;2022-11-10T10:19:04;14.00;99.90
27540;DHT22;15906;52.046;4.724;2022-11-10T10:21:44;14.00;99.90
27540;DHT22;15906;52.046;4.724;2022-11-10T10:24:16;14.10;99.90
27540;DHT22;15906;52.046;4.724;2022-11-10T10:26:51;14.30;99.90
27540;DHT22;15906;52.046;4.724;2022-11-10T10:29:42;14.40;99.90
27540;DHT22;15906;52.046;4.724;2022-11-10T10:32:12;14.40;99.90
27540;DHT22;15906;52.046;4.724;2022-11-10T10:34:38;14.30;99.90
27540;DHT22;15906;52.046;4.724;2022-11-10T10:37:04;14.50;99.90
27540;DHT22;15906;52.046;4.724;2022-11-10T10:39:43;14.30;99.90
27540;DHT22;15906;52.046;4.724;2022-11-10T10:45:13;14.30;99.90
27540;DHT22;15906;52.046;4.724;2022-11-10T10:47:39;14.30;99.90
27540;DHT22;15906;52.046;4.724;2022-11-10T10:58:28;14.10;99.90
27540;DHT22;15906;52.046;4.724;2022-11-10T11:01:28;14.10;99.90
27540;DHT22;15906;52.046;4.724;2022-11-10T11:03:54;14.00;99.90
27540;DHT22;15906;52.046;4.724;2022-11-10T11:06:28;13.90;99.90
27540;DHT22;15906;52.046;4.724;2022-11-10T11:08:55;13.80;99.90
27540;DHT22;15906;52.046;4.724;2022-11-10T11:11:32;13.90;99.90
27540;DHT22;15906;52.046;4.724;2022-11-10T11:14:18;14.00;99.90
27540;DHT22;15906;52.046;4.724;2022-11-10T11:16:52;13.90;99.90
27540;DHT22;15906;52.046;4.724;2022-11-10T11:19:21;13.90;99.90
27540;DHT22;15906;52.046;4.724;2022-11-10T11:24:42;14.00;99.90
27540;DHT22;15906;52.046;4.724;2022-11-10T11:30:08;14.10;99.90
27540;DHT22;15906;52.046;4.724;2022-11-10T11:32:57;14.00;99.90
27540;DHT22;15906;52.046;4.724;2022-11-10T11:38:23;14.00;99.90
27540;DHT22;15906;52.046;4.724;2022-11-10T11:46:42;14.20;99.90
27540;DHT22;15906;52.046;4.724;2022-11-10T11:49:40;14.10;99.90
27540;DHT22;15906;52.046;4.724;2022-11-10T12:00:24;14.20;99.90
27540;DHT22;15906;52.046;4.724;2022-11-10T12:05:39;14.10;99.90
27540;DHT22;15906;52.046;4.724;2022-11-10T12:08:17;14.10;99.90
27540;DHT22;15906;52.046;4.724;2022-11-10T12:10:51;14.10;99.90
27540;DHT22;15906;52.046;4.724;2022-11-10T12:18:34;14.10;99.90
27540;DHT22;15906;52.046;4.724;2022-11-10T12:21:21;14.20;99.90
27540;DHT22;15906;52.046;4.724;2022-11-10T12:29:52;14.00;99.90
27540;DHT22;15906;52.046;4.724;2022-11-10T12:32:37;14.00;99.90
27540;DHT22;15906;52.046;4.724;2022-11-10T12:35:10;14.00;99.90
27540;DHT22;15906;52.046;4.724;2022-11-10T12:38:04;14.00;99.90
27540;DHT22;15906;52.046;4.724;2022-11-10T12:40:56;14.10;99.90
27540;DHT22;15906;52.046;4.724;2022-11-10T12:46:22;14.10;99.90
27540;DHT22;15906;52.046;4.724;2022-11-10T12:49:10;14.10;99.90
27540;DHT22;15906;52.046;4.724;2022-11-10T12:51:47;14.20;99.90
27540;DHT22;15906;52.046;4.724;2022-11-10T12:54:15;14.20;99.90
27540;DHT22;15906;52.046;4.724;2022-11-10T12:56:52;14.30;99.90
27540;DHT22;15906;52.046;4.724;2022-11-10T13:01:46;14.20;99.90
27540;DHT22;15906;52.046;4.724;2022-11-10T13:04:15;14.30;99.90
27540;DHT22;15906;52.046;4.724;2022-11-10T13:06:49;14.20;99.90
27540;DHT22;15906;52.046;4.724;2022-11-10T13:09:23;14.20;99.90
27540;DHT22;15906;52.046;4.724;2022-11-10T13:14:40;14.20;99.90
27540;DHT22;15906;52.046;4.724;2022-11-10T13:17:07;14.20;99.90
27540;DHT22;15906;52.046;4.724;2022-11-10T13:25:47;14.30;99.90
27540;DHT22;15906;52.046;4.724;2022-11-10T13:28:09;14.20;99.90
27540;DHT22;15906;52.046;4.724;2022-11-10T13:30:45;14.20;99.90
27540;DHT22;15906;52.046;4.724;2022-11-10T13:35:55;14.20;99.90
27540;DHT22;15906;52.046;4.724;2022-11-10T13:38:39;14.30;99.90
27540;DHT22;15906;52.046;4.724;2022-11-10T13:43:50;14.30;99.90
27540;DHT22;15906;52.046;4.724;2022-11-10T13:46:17;14.30;99.90
27540;DHT22;15906;52.046;4.724;2022-11-10T13:49:03;14.30;99.90
27540;DHT22;15906;52.046;4.724;2022-11-10T13:51:49;14.40;99.90
27540;DHT22;15906;52.046;4.724;2022-11-10T13:54:23;14.40;99.90
27540;DHT22;15906;52.046;4.724;2022-11-10T13:59:30;14.40;99.90
27540;DHT22;15906;52.046;4.724;2022-11-10T14:02:58;14.40;99.90
27540;DHT22;15906;52.046;4.724;2022-11-10T14:05:05;14.30;99.90
27540;DHT22;15906;52.046;4.724;2022-11-10T14:07:41;14.30;99.90
27540;DHT22;15906;52.046;4.724;2022-11-10T14:10:15;14.20;99.90
27540;DHT22;15906;52.046;4.724;2022-11-10T14:12:52;14.20;99.90
27540;DHT22;15906;52.046;4.724;2022-11-10T14:15:23;14.20;99.90
27540;DHT22;15906;52.046;4.724;2022-11-10T14:17:51;14.30;99.90
27540;DHT22;15906;52.046;4.724;2022-11-10T14:20:23;14.20;99.90
27540;DHT22;15906;52.046;4.724;2022-11-10T14:22:51;14.20;99.90
27540;DHT22;15906;52.046;4.724;2022-11-10T14:25:38;14.20;99.90
27540;DHT22;15906;52.046;4.724;2022-11-10T14:28:28;14.30;99.90
27540;DHT22;15906;52.046;4.724;2022-11-10T14:30:54;14.30;99.90
27540;DHT22;15906;52.046;4.724;2022-11-10T14:33:21;14.30;99.90
27540;DHT22;15906;52.046;4.724;2022-11-10T14:38:26;14.30;99.90
27540;DHT22;15906;52.046;4.724;2022-11-10T14:40:54;14.30;99.90
27540;DHT22;15906;52.046;4.724;2022-11-10T14:43:30;14.30;99.90
27540;DHT22;15906;52.046;4.724;2022-11-10T14:45:56;14.30;99.90
27540;DHT22;15906;52.046;4.724;2022-11-10T14:48:25;14.20;99.90
27540;DHT22;15906;52.046;4.724;2022-11-10T14:50:52;14.10;99.90
27540;DHT22;15906;52.046;4.724;2022-11-10T14:53:33;14.00;99.90
27540;DHT22;15906;52.046;4.724;2022-11-10T14:56:00;13.90;99.90
27540;DHT22;15906;52.046;4.724;2022-11-10T14:58:36;14.00;99.90
27540;DHT22;15906;52.046;4.724;2022-11-10T15:01:03;13.90;99.90
27540;DHT22;15906;52.046;4.724;2022-11-10T15:03:37;13.80;99.90
27540;DHT22;15906;52.046;4.724;2022-11-10T15:06:07;13.80;99.90
27540;DHT22;15906;52.046;4.724;2022-11-10T15:08:34;13.80;99.90
27540;DHT22;15906;52.046;4.724;2022-11-10T15:11:00;13.80;99.90
27540;DHT22;15906;52.046;4.724;2022-11-10T15:16:22;13.60;99.90
27540;DHT22;15906;52.046;4.724;2022-11-10T15:18:49;13.60;99.90
27540;DHT22;15906;52.046;4.724;2022-11-10T15:21:17;13.50;99.90
27540;DHT22;15906;52.046;4.724;2022-11-10T15:23:45;13.50;99.90
27540;DHT22;15906;52.046;4.724;2022-11-10T15:26:23;13.50;99.90
27540;DHT22;15906;52.046;4.724;2022-11-10T15:28:49;13.50;99.90
27540;DHT22;15906;52.046;4.724;2022-11-10T15:31:29;13.50;99.90
27540;DHT22;15906;52.046;4.724;2022-11-10T15:33:57;13.60;99.90
27540;DHT22;15906;52.046;4.724;2022-11-10T15:41:37;13.60;99.90
27540;DHT22;15906;52.046;4.724;2022-11-10T15:44:19;13.50;99.90
27540;DHT22;15906;52.046;4.724;2022-11-10T15:46:45;13.50;99.90
27540;DHT22;15906;52.046;4.724;2022-11-10T15:49:21;13.50;99.90
27540;DHT22;15906;52.046;4.724;2022-11-10T15:51:49;13.50;99.90
27540;DHT22;15906;52.046;4.724;2022-11-10T15:54:17;13.50;99.90
27540;DHT22;15906;52.046;4.724;2022-11-10T15:56:45;13.50;99.90
27540;DHT22;15906;52.046;4.724;2022-11-10T15:59:11;13.50;99.90
27540;DHT22;15906;52.046;4.724;2022-11-10T16:01:37;13.50;99.90
27540;DHT22;15906;52.046;4.724;2022-11-10T16:04:03;13.50;99.90
27540;DHT22;15906;52.046;4.724;2022-11-10T16:06:28;13.50;99.90
27540;DHT22;15906;52.046;4.724;2022-11-10T16:08:55;13.50;99.90
27540;DHT22;15906;52.046;4.724;2022-11-10T16:11:21;13.40;99.90
27540;DHT22;15906;52.046;4.724;2022-11-10T16:13:48;13.30;99.90
27540;DHT22;15906;52.046;4.724;2022-11-10T16:16:15;13.30;99.90
27540;DHT22;15906;52.046;4.724;2022-11-10T16:18:42;13.30;99.90
27540;DHT22;15906;52.046;4.724;2022-11-10T16:21:16;13.20;99.90
27540;DHT22;15906;52.046;4.724;2022-11-10T16:23:43;13.30;99.90
27540;DHT22;15906;52.046;4.724;2022-11-10T16:26:14;13.30;99.90
27540;DHT22;15906;52.046;4.724;2022-11-10T16:28:40;13.30;99.90
27540;DHT22;15906;52.046;4.724;2022-11-10T16:31:09;13.40;99.90
27540;DHT22;15906;52.046;4.724;2022-11-10T16:33:36;13.30;99.90
27540;DHT22;15906;52.046;4.724;2022-11-10T16:36:01;13.30;99.90
27540;DHT22;15906;52.046;4.724;2022-11-10T16:38:29;13.20;99.90
27540;DHT22;15906;52.046;4.724;2022-11-10T16:41:00;13.20;99.90
27540;DHT22;15906;52.046;4.724;2022-11-10T16:43:27;13.20;99.90
27540;DHT22;15906;52.046;4.724;2022-11-10T16:45:54;13.10;99.90
27540;DHT22;15906;52.046;4.724;2022-11-10T16:48:23;13.10;99.90
27540;DHT22;15906;52.046;4.724;2022-11-10T16:50:53;13.10;99.90
27540;DHT22;15906;52.046;4.724;2022-11-10T16:53:27;13.10;99.90
27540;DHT22;15906;52.046;4.724;2022-11-10T16:55:53;13.20;99.90
27540;DHT22;15906;52.046;4.724;2022-11-10T16:58:19;13.20;99.90
27540;DHT22;15906;52.046;4.724;2022-11-10T17:00:46;13.10;99.90
27540;DHT22;15906;52.046;4.724;2022-11-10T17:03:35;13.10;99.90
27540;DHT22;15906;52.046;4.724;2022-11-10T17:06:02;13.00;99.90
27540;DHT22;15906;52.046;4.724;2022-11-10T17:08:30;13.00;99.90